createdAt,value
2022-10-19T00:01:26.199Z,11.80
2022-10-19T00:03:56.557Z,11.50
2022-10-19T00:06:27.246Z,11.40
2022-10-19T00:08:57.999Z,11.70
2022-10-19T00:11:26.681Z,11.20
2022-10-19T00:13:57.749Z,11.80
2022-10-19T00:16:28.374Z,11.50
2022-10-19T00:18:58.775Z,11.20
2022-10-19T00:21:28.275Z,10.90
2022-10-19T00:23:56.946Z,11.60
2022-10-19T00:26:25.952Z,11.00
2022-10-19T00:28:55.215Z,10.10
2022-10-19T00:31:24.242Z,10.60
2022-10-19T00:33:56.070Z,10.90
2022-10-19T00:36:26.969Z,11.00
2022-10-19T00:38:57.007Z,11.60
2022-10-19T00:41:28.977Z,11.60
2022-10-19T00:44:00.909Z,11.10
2022-10-19T00:46:32.796Z,11.30
2022-10-19T00:49:07.085Z,10.70
2022-10-19T00:51:42.457Z,10.90
2022-10-19T00:54:11.948Z,11.10
2022-10-19T00:56:43.103Z,10.80
2022-10-19T00:59:14.964Z,11.10
2022-10-19T01:01:46.138Z,11.50
2022-10-19T01:04:15.493Z,11.20
2022-10-19T01:06:45.339Z,11.20
2022-10-19T01:09:14.042Z,11.40
2022-10-19T01:11:54.243Z,12.00
2022-10-19T01:14:35.552Z,12.70
2022-10-19T01:17:13.788Z,12.20
2022-10-19T01:20:08.299Z,11.90
2022-10-19T01:22:46.908Z,12.60
2022-10-19T01:25:25.144Z,12.30
2022-10-19T01:28:11.599Z,11.80
2022-10-19T01:30:48.421Z,12.70
2022-10-19T01:33:32.081Z,12.70
2022-10-19T01:36:12.135Z,11.90
2022-10-19T01:38:49.756Z,12.30
2022-10-19T01:41:24.049Z,12.70
2022-10-19T01:43:59.958Z,12.40
2022-10-19T01:46:36.638Z,12.50
2022-10-19T01:49:13.829Z,12.50
2022-10-19T01:51:47.676Z,12.30
2022-10-19T01:54:20.312Z,12.80
2022-10-19T01:56:52.497Z,11.50
2022-10-19T01:59:22.553Z,12.00
2022-10-19T02:01:53.841Z,12.40
2022-10-19T02:04:25.532Z,11.70
2022-10-19T02:06:55.603Z,10.90
2022-10-19T02:09:24.736Z,11.00
2022-10-19T02:11:58.620Z,12.20
2022-10-19T02:14:34.190Z,12.60
2022-10-19T02:17:06.382Z,12.60
2022-10-19T02:19:35.027Z,11.70
2022-10-19T02:22:04.812Z,10.60
2022-10-19T02:24:33.915Z,11.10
2022-10-19T02:27:05.061Z,10.20
2022-10-19T02:29:34.679Z,11.00
2022-10-19T02:32:04.030Z,12.00
2022-10-19T02:34:34.371Z,11.30
2022-10-19T02:37:03.446Z,11.60
2022-10-19T02:39:33.190Z,11.40
2022-10-19T02:42:07.375Z,10.10
2022-10-19T02:44:43.214Z,11.00
2022-10-19T02:47:15.762Z,10.60
2022-10-19T02:49:45.361Z,10.80
2022-10-19T02:52:15.333Z,10.90
2022-10-19T02:54:45.195Z,9.70
2022-10-19T02:57:18.677Z,10.40
2022-10-19T02:59:47.725Z,10.40
2022-10-19T03:02:17.470Z,9.80
2022-10-19T03:07:19.151Z,10.00
2022-10-19T03:09:48.261Z,10.60
2022-10-19T03:12:17.236Z,10.40
2022-10-19T03:14:46.475Z,9.70
2022-10-19T03:17:15.361Z,10.10
2022-10-19T03:19:44.247Z,9.00
2022-10-19T03:22:14.017Z,9.40
2022-10-19T03:24:48.760Z,10.00
2022-10-19T03:29:48.213Z,9.70
2022-10-19T03:32:16.857Z,8.80
2022-10-19T03:34:45.692Z,8.70
2022-10-19T03:37:14.889Z,9.00
2022-10-19T03:39:43.928Z,8.60
2022-10-19T03:42:12.713Z,9.10
2022-10-19T03:44:41.958Z,8.40
2022-10-19T03:47:10.788Z,8.10
2022-10-19T03:49:40.346Z,8.20
2022-10-19T03:52:09.804Z,8.30
2022-10-19T03:54:38.627Z,7.80
2022-10-19T03:57:07.776Z,8.70
2022-10-19T03:59:36.435Z,7.10
2022-10-19T04:02:05.168Z,6.60
2022-10-19T04:04:34.875Z,7.60
2022-10-19T04:07:03.607Z,7.30
2022-10-19T04:09:32.439Z,7.70
2022-10-19T04:12:01.098Z,6.20
2022-10-19T04:14:32.592Z,7.00
2022-10-19T04:17:02.312Z,6.80
2022-10-19T04:19:31.704Z,7.10
2022-10-19T04:22:00.572Z,7.20
2022-10-19T04:24:29.489Z,7.70
2022-10-19T04:26:58.183Z,7.70
2022-10-19T04:29:29.901Z,8.70
2022-10-19T04:31:59.845Z,8.10
2022-10-19T04:34:28.687Z,7.80
2022-10-19T04:36:58.999Z,7.90
2022-10-19T04:39:27.835Z,8.70
2022-10-19T04:41:56.590Z,8.80
2022-10-19T04:44:26.125Z,7.60
2022-10-19T04:46:55.885Z,7.50
2022-10-19T04:49:25.411Z,7.80
2022-10-19T04:51:54.097Z,8.00
2022-10-19T04:54:24.036Z,8.30
2022-10-19T04:56:53.392Z,7.80
2022-10-19T04:59:22.056Z,8.80
2022-10-19T05:01:50.915Z,8.10
2022-10-19T05:04:20.203Z,8.10
2022-10-19T05:06:49.029Z,8.10
2022-10-19T05:09:18.406Z,8.10
2022-10-19T05:11:49.211Z,8.80
2022-10-19T05:14:18.038Z,8.30
2022-10-19T05:16:46.798Z,8.70
2022-10-19T05:19:16.423Z,8.20
2022-10-19T05:21:45.045Z,8.30
2022-10-19T05:24:14.239Z,9.00
2022-10-19T05:26:42.976Z,8.60
2022-10-19T05:29:13.215Z,7.90
2022-10-19T05:31:42.801Z,9.40
2022-10-19T05:34:11.629Z,7.90
2022-10-19T05:36:40.974Z,9.30
2022-10-19T05:39:13.138Z,8.50
2022-10-19T05:41:44.680Z,9.00
2022-10-19T05:44:16.164Z,9.20
2022-10-19T05:46:45.741Z,8.30
2022-10-19T05:49:16.147Z,9.10
2022-10-19T05:51:45.952Z,9.80
2022-10-19T05:54:15.679Z,9.10
2022-10-19T05:56:44.897Z,8.70
2022-10-19T05:59:17.425Z,8.30
2022-10-19T06:01:46.507Z,8.90
2022-10-19T06:06:49.005Z,8.60
2022-10-19T06:09:17.727Z,9.80
2022-10-19T06:11:48.426Z,8.50
2022-10-19T06:14:17.736Z,8.60
2022-10-19T06:16:46.701Z,8.80
2022-10-19T06:19:15.410Z,7.90
2022-10-19T06:21:45.820Z,8.20
2022-10-19T06:24:14.917Z,8.10
2022-10-19T06:26:43.661Z,8.60
2022-10-19T06:29:12.395Z,7.80
2022-10-19T06:31:41.366Z,7.70
2022-10-19T06:34:10.597Z,8.70
2022-10-19T06:36:39.301Z,8.00
2022-10-19T06:39:07.887Z,8.00
2022-10-19T06:41:36.491Z,7.20
2022-10-19T06:44:05.393Z,8.40
2022-10-19T06:46:33.985Z,8.40
2022-10-19T06:49:03.129Z,8.70
2022-10-19T06:51:33.634Z,7.60
2022-10-19T06:54:02.396Z,7.20
2022-10-19T06:56:31.118Z,8.20
2022-10-19T06:59:00.246Z,7.70
2022-10-19T07:01:29.555Z,6.90
2022-10-19T07:03:58.687Z,7.40
2022-10-19T07:06:29.006Z,8.00
2022-10-19T07:08:57.783Z,7.90
2022-10-19T07:11:26.957Z,7.40
2022-10-19T07:13:55.998Z,7.50
2022-10-19T07:16:24.979Z,5.80
2022-10-19T07:18:54.571Z,5.80
2022-10-19T07:21:24.600Z,5.20
2022-10-19T07:23:53.379Z,5.40
2022-10-19T07:26:26.241Z,5.40
2022-10-19T07:28:57.429Z,5.40
2022-10-19T07:31:27.553Z,5.40
2022-10-19T07:33:57.832Z,5.30
2022-10-19T07:36:27.475Z,5.60
2022-10-19T07:38:56.779Z,5.20
2022-10-19T07:41:26.827Z,5.90
2022-10-19T07:43:57.440Z,5.40
2022-10-19T07:46:29.015Z,5.80
2022-10-19T07:48:57.753Z,4.90
2022-10-19T07:54:00.968Z,4.90
2022-10-19T07:56:30.519Z,5.40
2022-10-19T07:59:00.512Z,5.00
2022-10-19T08:01:31.421Z,5.40
2022-10-19T08:06:50.892Z,5.10
2022-10-19T08:09:40.448Z,4.00
2022-10-19T08:12:12.489Z,4.40
2022-10-19T08:14:43.559Z,4.10
2022-10-19T08:17:17.040Z,4.50
2022-10-19T08:19:46.647Z,4.30
2022-10-19T08:22:15.450Z,4.70
2022-10-19T08:24:45.094Z,4.70
2022-10-19T08:27:14.860Z,3.40
2022-10-19T08:29:44.319Z,5.40
2022-10-19T08:32:13.523Z,4.00
2022-10-19T08:34:42.869Z,3.50
2022-10-19T08:37:26.078Z,3.60
2022-10-19T08:40:00.558Z,3.70
2022-10-19T08:42:37.769Z,3.80
2022-10-19T08:45:34.638Z,3.20
2022-10-19T08:48:19.131Z,3.30
2022-10-19T08:50:49.045Z,3.50
2022-10-19T08:53:22.630Z,3.10
2022-10-19T08:56:04.550Z,2.90
2022-10-19T08:58:46.737Z,2.80
2022-10-19T09:01:24.674Z,2.70
2022-10-19T09:04:01.385Z,2.40
2022-10-19T09:06:37.719Z,2.40
2022-10-19T09:09:11.306Z,2.70
2022-10-19T09:11:45.031Z,2.00
2022-10-19T09:14:18.830Z,2.20
2022-10-19T09:16:47.817Z,2.20
2022-10-19T09:19:25.265Z,1.80
2022-10-19T09:21:58.161Z,2.30
2022-10-19T09:24:37.349Z,2.60
2022-10-19T09:27:11.473Z,2.40
2022-10-19T09:29:44.531Z,2.40
2022-10-19T09:32:18.954Z,2.20
2022-10-19T09:34:51.252Z,2.70
2022-10-19T09:37:25.900Z,2.50
2022-10-19T09:39:56.416Z,2.60
2022-10-19T09:42:29.803Z,2.80
2022-10-19T09:45:00.971Z,2.60
2022-10-19T09:47:36.069Z,2.30
2022-10-19T09:50:17.106Z,2.30
2022-10-19T09:52:47.043Z,2.70
2022-10-19T09:55:38.462Z,2.10
2022-10-19T09:58:18.212Z,3.20
2022-10-19T10:00:50.118Z,2.70
2022-10-19T10:03:28.145Z,2.70
2022-10-19T10:05:59.729Z,1.90
2022-10-19T10:08:33.306Z,2.60
2022-10-19T10:11:08.277Z,2.20
2022-10-19T10:13:42.640Z,2.00
2022-10-19T10:16:15.132Z,2.20
2022-10-19T10:18:54.679Z,2.20
2022-10-19T10:21:26.091Z,1.90
2022-10-19T10:24:05.164Z,1.90
2022-10-19T10:26:39.897Z,2.10
2022-10-19T10:29:20.806Z,2.30
2022-10-19T10:31:52.970Z,1.70
2022-10-19T10:37:28.577Z,1.60
2022-10-19T10:42:40.664Z,1.60
2022-10-19T10:45:19.427Z,1.30
2022-10-19T10:47:49.839Z,1.50
2022-10-19T10:50:23.067Z,1.80
2022-10-19T10:53:01.889Z,0.90
2022-10-19T10:55:31.267Z,1.00
2022-10-19T10:58:12.697Z,0.90
2022-10-19T11:00:43.694Z,0.80
2022-10-19T11:03:17.622Z,0.70
2022-10-19T11:05:49.432Z,1.10
2022-10-19T11:08:25.165Z,0.80
2022-10-19T11:11:00.638Z,1.30
2022-10-19T11:13:35.639Z,1.00
2022-10-19T11:16:13.028Z,1.30
2022-10-19T11:18:46.216Z,1.00
2022-10-19T11:21:20.365Z,1.10
2022-10-19T11:24:11.220Z,1.20
2022-10-19T11:26:58.774Z,1.10
2022-10-19T11:29:43.499Z,1.00
2022-10-19T11:32:20.484Z,1.20
2022-10-19T11:35:02.585Z,1.20
2022-10-19T11:37:49.440Z,1.10
2022-10-19T11:40:28.082Z,1.00
2022-10-19T11:43:04.420Z,1.20
2022-10-19T11:45:46.254Z,1.20
2022-10-19T11:48:32.812Z,1.50
2022-10-19T11:51:20.605Z,1.00
2022-10-19T11:54:05.898Z,0.90
2022-10-19T11:57:01.712Z,1.20
2022-10-19T12:02:20.833Z,0.90
2022-10-19T12:04:57.036Z,0.80
2022-10-19T12:07:40.683Z,0.70
2022-10-19T12:10:18.541Z,0.90
2022-10-19T12:12:51.039Z,1.00
2022-10-19T12:15:26.328Z,0.90
2022-10-19T12:17:57.372Z,1.00
2022-10-19T12:20:32.742Z,0.90
2022-10-19T12:23:21.645Z,1.20
2022-10-19T12:25:53.316Z,1.30
2022-10-19T12:28:27.851Z,1.30
2022-10-19T12:30:58.191Z,1.50
2022-10-19T12:33:35.699Z,1.60
2022-10-19T12:36:16.228Z,1.60
2022-10-19T12:38:59.762Z,1.10
2022-10-19T12:41:37.046Z,1.30
2022-10-19T12:44:22.493Z,0.80
2022-10-19T12:46:58.730Z,0.90
2022-10-19T12:49:52.990Z,1.00
2022-10-19T12:52:41.999Z,1.00
2022-10-19T12:55:27.469Z,1.20
2022-10-19T12:58:02.716Z,1.70
2022-10-19T13:00:33.524Z,1.20
2022-10-19T13:03:06.427Z,1.10
2022-10-19T13:05:36.147Z,1.40
2022-10-19T13:08:09.272Z,1.50
2022-10-19T13:10:40.887Z,1.70
2022-10-19T13:13:52.583Z,1.60
2022-10-19T13:17:01.963Z,2.40
2022-10-19T13:19:30.956Z,2.20
2022-10-19T13:22:26.699Z,2.40
2022-10-19T13:25:21.450Z,2.70
2022-10-19T13:27:51.377Z,2.90
2022-10-19T13:31:03.307Z,2.70
2022-10-19T13:33:54.729Z,2.60
2022-10-19T13:36:25.803Z,1.70
2022-10-19T13:39:15.809Z,1.10
2022-10-19T13:41:51.011Z,0.70
2022-10-19T13:44:24.606Z,0.90
2022-10-19T13:47:14.101Z,1.10
2022-10-19T13:50:16.871Z,0.80
2022-10-19T13:52:59.140Z,1.10
2022-10-19T13:55:55.559Z,1.30
2022-10-19T13:58:45.074Z,1.20
2022-10-19T14:01:26.274Z,1.20
2022-10-19T14:04:18.182Z,1.30
2022-10-19T14:06:53.322Z,1.40
2022-10-19T14:09:51.886Z,1.20
2022-10-19T14:12:24.287Z,0.80
2022-10-19T14:14:54.266Z,0.80
2022-10-19T14:17:24.973Z,1.00
2022-10-19T14:19:56.697Z,0.80
2022-10-19T14:22:30.125Z,0.80
2022-10-19T14:25:05.336Z,1.10
2022-10-19T14:27:35.293Z,0.60
2022-10-19T14:30:06.230Z,0.60
2022-10-19T14:32:35.734Z,0.70
2022-10-19T14:35:21.646Z,0.70
2022-10-19T14:37:51.349Z,0.70
2022-10-19T14:40:30.153Z,0.90
2022-10-19T14:43:00.757Z,1.10
2022-10-19T14:45:31.624Z,1.00
2022-10-19T14:48:04.136Z,0.70
2022-10-19T14:50:47.562Z,0.80
2022-10-19T14:53:31.406Z,1.00
2022-10-19T14:56:06.301Z,0.80
2022-10-19T14:58:39.843Z,1.00
2022-10-19T15:01:09.972Z,0.80
2022-10-19T15:03:43.718Z,0.90
2022-10-19T15:06:19.421Z,0.90
2022-10-19T15:11:29.712Z,1.20
2022-10-19T15:14:08.349Z,1.00
2022-10-19T15:16:44.968Z,1.40
2022-10-19T15:19:19.707Z,1.10
2022-10-19T15:24:27.564Z,1.60
2022-10-19T15:27:08.690Z,2.10
2022-10-19T15:29:38.345Z,2.20
2022-10-19T15:32:22.545Z,2.00
2022-10-19T15:34:51.671Z,1.80
2022-10-19T15:37:23.373Z,1.90
2022-10-19T15:39:52.866Z,1.90
2022-10-19T15:42:34.741Z,2.30
2022-10-19T15:45:04.225Z,1.30
2022-10-19T15:47:34.010Z,1.40
2022-10-19T15:50:25.671Z,1.30
2022-10-19T15:52:56.599Z,1.40
2022-10-19T15:55:25.588Z,1.80
2022-10-19T15:58:00.004Z,1.50
2022-10-19T16:00:30.333Z,1.30
2022-10-19T16:02:59.576Z,1.80
2022-10-19T16:05:29.252Z,1.30
2022-10-19T16:07:58.685Z,1.80
2022-10-19T16:10:28.326Z,1.50
2022-10-19T16:12:57.252Z,2.10
2022-10-19T16:15:26.478Z,2.10
2022-10-19T16:17:58.266Z,2.50
2022-10-19T16:20:30.008Z,1.80
2022-10-19T16:22:58.954Z,2.30
2022-10-19T16:25:27.765Z,2.20
2022-10-19T16:27:56.599Z,2.20
2022-10-19T16:30:25.326Z,2.00
2022-10-19T16:32:54.142Z,2.00
2022-10-19T16:35:24.072Z,2.00
2022-10-19T16:37:52.908Z,2.40
2022-10-19T16:40:21.803Z,2.40
2022-10-19T16:42:50.897Z,2.40
2022-10-19T16:45:19.751Z,2.30
2022-10-19T16:47:51.671Z,2.50
2022-10-19T16:50:21.229Z,2.60
2022-10-19T16:53:05.088Z,2.70
2022-10-19T16:55:35.255Z,2.90
2022-10-19T16:58:04.162Z,2.60
2022-10-19T17:00:33.002Z,2.50
2022-10-19T17:03:02.266Z,2.80
2022-10-19T17:05:31.541Z,2.80
2022-10-19T17:08:01.701Z,2.60
2022-10-19T17:10:31.394Z,3.00
2022-10-19T17:13:00.840Z,2.50
2022-10-19T17:15:42.546Z,2.10
2022-10-19T17:18:12.416Z,2.20
2022-10-19T17:20:41.259Z,2.10
2022-10-19T17:23:13.845Z,2.30
2022-10-19T17:25:49.882Z,2.30
2022-10-19T17:28:21.042Z,2.50
2022-10-19T17:30:53.092Z,2.50
2022-10-19T17:33:22.924Z,1.90
2022-10-19T17:35:52.035Z,2.10
2022-10-19T17:38:21.097Z,2.20
2022-10-19T17:40:50.231Z,2.40
2022-10-19T17:43:19.357Z,2.60
2022-10-19T17:45:48.574Z,2.60
2022-10-19T17:48:18.127Z,2.50
2022-10-19T17:50:56.679Z,2.70
2022-10-19T17:53:25.849Z,3.40
2022-10-19T17:55:54.822Z,2.90
2022-10-19T17:58:24.804Z,2.50
2022-10-19T18:00:58.169Z,3.30
2022-10-19T18:03:30.478Z,3.60
2022-10-19T18:06:04.608Z,3.70
2022-10-19T18:08:38.311Z,3.40
2022-10-19T18:11:10.160Z,3.30
2022-10-19T18:13:41.033Z,3.30
2022-10-19T18:16:12.638Z,3.20
2022-10-19T18:18:46.091Z,3.90
2022-10-19T18:21:17.462Z,3.90
2022-10-19T18:23:46.798Z,3.70
2022-10-19T18:26:21.684Z,3.20
2022-10-19T18:28:52.834Z,3.30
2022-10-19T18:31:24.182Z,3.90
2022-10-19T18:33:59.070Z,5.00
2022-10-19T18:36:29.397Z,4.80
2022-10-19T18:39:00.000Z,6.20
2022-10-19T18:41:30.365Z,7.20
2022-10-19T18:44:03.311Z,7.40
2022-10-19T18:46:33.871Z,8.10
2022-10-19T18:49:04.956Z,7.60
2022-10-19T18:51:34.626Z,7.50
2022-10-19T18:54:04.579Z,7.00
2022-10-19T18:56:34.049Z,6.30
2022-10-19T18:59:03.749Z,6.50
2022-10-19T19:01:33.173Z,5.80
2022-10-19T19:04:10.130Z,5.50
2022-10-19T19:06:40.229Z,5.90
2022-10-19T19:09:14.691Z,4.80
2022-10-19T19:11:43.996Z,4.40
2022-10-19T19:14:16.260Z,4.70
2022-10-19T19:16:46.184Z,4.80
2022-10-19T19:19:17.220Z,8.20
2022-10-19T19:21:47.540Z,6.80
2022-10-19T19:24:19.029Z,7.40
2022-10-19T19:26:50.819Z,9.10
2022-10-19T19:29:21.608Z,9.60
2022-10-19T19:31:51.532Z,10.00
2022-10-19T19:34:21.198Z,8.80
2022-10-19T19:36:50.584Z,8.40
2022-10-19T19:39:21.397Z,9.10
2022-10-19T19:41:51.359Z,8.70
2022-10-19T19:44:21.304Z,9.90
2022-10-19T19:46:50.706Z,10.80
2022-10-19T19:49:24.443Z,11.10
2022-10-19T19:51:54.784Z,11.80
2022-10-19T19:54:24.515Z,15.00
2022-10-19T19:56:55.631Z,10.90
2022-10-19T19:59:24.919Z,14.40
2022-10-19T20:01:54.245Z,14.80
2022-10-19T20:04:25.691Z,10.30
2022-10-19T20:06:55.800Z,9.30
2022-10-19T20:09:26.862Z,9.00
2022-10-19T20:11:56.234Z,10.70
2022-10-19T20:14:25.011Z,8.90
2022-10-19T20:16:54.207Z,8.10
2022-10-19T20:19:24.810Z,11.00
2022-10-19T20:22:10.142Z,11.90
2022-10-19T20:24:40.317Z,14.80
2022-10-19T20:27:10.159Z,9.20
2022-10-19T20:29:39.468Z,9.50
2022-10-19T20:32:09.146Z,10.10
2022-10-19T20:34:38.336Z,10.50
2022-10-19T20:37:08.767Z,10.20
2022-10-19T20:39:37.724Z,21.50
2022-10-19T20:42:06.670Z,12.30
2022-10-19T20:44:35.420Z,14.50
2022-10-19T20:47:05.189Z,17.50
2022-10-19T20:49:34.551Z,15.80
2022-10-19T20:52:03.825Z,18.50
2022-10-19T20:54:32.664Z,11.20
2022-10-19T20:57:02.090Z,16.50
2022-10-19T20:59:33.095Z,22.30
2022-10-19T21:02:01.892Z,13.80
2022-10-19T21:04:31.144Z,12.50
2022-10-19T21:07:00.746Z,14.90
2022-10-19T21:09:29.520Z,16.00
2022-10-19T21:11:58.512Z,12.00
2022-10-19T21:14:31.035Z,10.60
2022-10-19T21:17:00.666Z,9.50
2022-10-19T21:19:31.108Z,8.50
2022-10-19T21:22:02.030Z,8.90
2022-10-19T21:24:32.603Z,8.50
2022-10-19T21:27:03.372Z,8.70
2022-10-19T21:29:32.115Z,9.20
2022-10-19T21:32:00.690Z,7.30
2022-10-19T21:34:31.733Z,7.60
2022-10-19T21:37:00.626Z,7.10
2022-10-19T21:39:29.217Z,6.90
2022-10-19T21:41:58.141Z,7.00
2022-10-19T21:44:26.795Z,6.30
2022-10-19T21:46:55.594Z,5.60
2022-10-19T21:49:24.574Z,5.60
2022-10-19T21:51:58.089Z,6.00
2022-10-19T21:54:27.339Z,5.60
2022-10-19T21:56:58.149Z,6.90
2022-10-19T21:59:27.096Z,5.90
2022-10-19T22:01:56.721Z,6.40
2022-10-19T22:04:25.539Z,5.60
2022-10-19T22:06:54.341Z,5.20
2022-10-19T22:09:23.583Z,5.10
2022-10-19T22:11:52.324Z,4.80
2022-10-19T22:14:21.006Z,4.10
2022-10-19T22:16:49.740Z,4.70
2022-10-19T22:19:18.433Z,4.30
2022-10-19T22:21:47.076Z,4.00
2022-10-19T22:24:16.668Z,4.00
2022-10-19T22:26:47.003Z,3.80
2022-10-19T22:29:15.732Z,3.90
2022-10-19T22:31:44.836Z,3.80
2022-10-19T22:34:15.414Z,3.90
2022-10-19T22:36:45.333Z,4.10
2022-10-19T22:39:14.848Z,4.20
2022-10-19T22:42:25.773Z,4.20
2022-10-19T22:44:54.745Z,3.60
2022-10-19T22:47:23.580Z,3.70
2022-10-19T22:49:52.529Z,4.10
2022-10-19T22:52:21.348Z,3.80
2022-10-19T22:54:50.843Z,4.10
2022-10-19T22:57:19.682Z,3.80
2022-10-19T22:59:48.340Z,3.90
2022-10-19T23:02:17.343Z,3.40
2022-10-19T23:04:46.064Z,3.30
2022-10-19T23:07:14.917Z,3.20
2022-10-19T23:09:43.699Z,3.60
2022-10-19T23:12:12.476Z,3.40
2022-10-19T23:14:41.186Z,3.20
2022-10-19T23:17:09.976Z,3.40
2022-10-19T23:19:38.737Z,3.70
2022-10-19T23:22:07.257Z,3.70
2022-10-19T23:24:38.568Z,3.40
2022-10-19T23:27:08.306Z,3.70
2022-10-19T23:29:37.273Z,3.80
2022-10-19T23:32:06.853Z,3.40
2022-10-19T23:37:09.579Z,4.50
2022-10-19T23:39:38.508Z,4.30
2022-10-19T23:42:07.159Z,4.40
2022-10-19T23:44:35.709Z,4.30
2022-10-19T23:47:04.278Z,4.20
2022-10-19T23:49:32.938Z,4.20
2022-10-19T23:52:01.625Z,4.20
2022-10-19T23:54:30.443Z,4.30
2022-10-19T23:56:59.256Z,4.10
2022-10-19T23:59:27.811Z,4.40
